Time;durP1;ratioP1;P1;durP2;ratioP2;P2;SDS_P1;SDS_P2;PMS_P1;PMS_P2;Temp;Humidity;BMP_temperature;BMP_pressure;BME280_temperature;BME280_humidity;BME280_pressure;Samples;Min_cycle;Max_cycle;Signal;HPM_P1;HPM_P2
2022/03/08 00:01:00;;;;;;;10.70;6.53;;;1.20;99.90;;;;;;5135007;27;20050;-80
2022/03/08 00:03:26;;;;;;;8.50;6.57;;;1.20;99.90;;;;;;5139030;27;20050;-80
2022/03/08 00:05:52;;;;;;;8.98;6.22;;;1.20;99.90;;;;;;5138904;27;20046;-79
2022/03/08 00:08:18;;;;;;;9.63;6.75;;;1.20;99.90;;;;;;5157630;27;20043;-79
2022/03/08 00:10:43;;;;;;;9.48;6.88;;;1.20;99.90;;;;;;5157443;27;20360;-79
2022/03/08 00:13:09;;;;;;;10.80;7.00;;;1.20;99.90;;;;;;5159744;27;20419;-77
2022/03/08 00:15:34;;;;;;;8.50;6.85;;;1.10;99.90;;;;;;5126868;27;20103;-77
2022/03/08 00:18:00;;;;;;;9.93;6.28;;;1.10;99.90;;;;;;5126974;27;20125;-76
2022/03/08 00:20:26;;;;;;;9.10;6.55;;;1.10;99.90;;;;;;5106763;27;20047;-80
2022/03/08 00:22:52;;;;;;;8.65;6.93;;;1.20;99.90;;;;;;5156816;27;20448;-80
2022/03/08 00:25:17;;;;;;;8.07;6.47;;;1.10;99.90;;;;;;5122015;27;20080;-79
2022/03/08 00:27:46;;;;;;;8.30;6.47;;;1.00;99.90;;;;;;5121679;27;20133;-80
2022/03/08 00:30:16;;;;;;;10.18;6.78;;;0.90;99.90;;;;;;5138946;27;20042;-79
2022/03/08 00:32:42;;;;;;;8.18;6.43;;;0.90;99.90;;;;;;5157130;27;20047;-80
2022/03/08 00:35:08;;;;;;;9.20;6.50;;;0.80;99.90;;;;;;5138181;27;20059;-80
2022/03/08 00:37:33;;;;;;;10.50;7.20;;;0.80;99.90;;;;;;5121371;27;20440;-79
2022/03/08 00:39:59;;;;;;;9.43;6.65;;;0.80;99.90;;;;;;5138275;27;20042;-80
2022/03/08 00:42:25;;;;;;;9.75;7.10;;;0.70;99.90;;;;;;5157008;27;20083;-80
2022/03/08 00:44:50;;;;;;;10.40;7.28;;;0.70;99.90;;;;;;5138431;27;20175;-79
2022/03/08 00:47:16;;;;;;;10.20;7.47;;;0.70;99.90;;;;;;5156500;27;20042;-80
2022/03/08 00:49:42;;;;;;;12.45;7.25;;;0.70;99.90;;;;;;5138440;27;20054;-80
2022/03/08 00:52:07;;;;;;;9.82;7.32;;;0.60;99.90;;;;;;5137804;27;20041;-80
2022/03/08 00:54:33;;;;;;;10.43;6.88;;;0.60;99.90;;;;;;5156638;27;20122;-79
2022/03/08 00:56:59;;;;;;;10.02;6.88;;;0.60;99.90;;;;;;5156392;27;20046;-80
2022/03/08 00:59:24;;;;;;;10.15;6.95;;;0.60;99.90;;;;;;5121197;27;20111;-79
2022/03/08 01:01:50;;;;;;;9.38;6.72;;;0.50;99.90;;;;;;5156688;27;20371;-80
2022/03/08 01:04:16;;;;;;;11.43;7.13;;;0.50;99.90;;;;;;5156083;27;20083;-79
2022/03/08 01:06:42;;;;;;;10.13;7.10;;;0.40;99.90;;;;;;5156519;27;20396;-79
2022/03/08 01:09:08;;;;;;;10.27;6.80;;;0.40;99.90;;;;;;5156076;27;20093;-80
2022/03/08 01:18:25;;;;;;;10.40;6.90;;;0.30;99.90;;;;;;5267776;22;20062;-80
2022/03/08 01:20:51;;;;;;;10.85;6.97;;;0.30;99.90;;;;;;5014207;28;20572;-80
2022/03/08 01:23:16;;;;;;;12.95;7.25;;;0.30;99.90;;;;;;5030187;28;20545;-80
2022/03/08 01:25:42;;;;;;;9.82;7.40;;;0.30;99.90;;;;;;4996540;28;20474;-80
2022/03/08 01:28:08;;;;;;;9.88;6.82;;;0.30;99.90;;;;;;5014431;28;20038;-80
2022/03/08 01:30:34;;;;;;;10.32;7.63;;;0.30;99.90;;;;;;5014423;28;20122;-80
2022/03/08 01:32:59;;;;;;;11.18;7.70;;;0.20;99.90;;;;;;5013939;28;20474;-80
2022/03/08 01:35:25;;;;;;;12.32;7.20;;;0.20;99.90;;;;;;5029845;28;20045;-80
2022/03/08 01:37:51;;;;;;;10.85;6.97;;;0.20;99.90;;;;;;5028888;28;20486;-80
2022/03/08 01:40:17;;;;;;;10.65;7.70;;;0.10;99.90;;;;;;5014171;28;20056;-80
2022/03/08 01:42:46;;;;;;;11.10;7.65;;;0.20;99.90;;;;;;5029349;28;20470;-80
2022/03/08 01:45:12;;;;;;;10.02;7.43;;;0.20;99.90;;;;;;5030305;28;20482;-80
2022/03/08 01:47:38;;;;;;;10.77;7.13;;;0.10;99.90;;;;;;5013468;28;20401;-77
2022/03/08 01:50:04;;;;;;;9.32;7.32;;;0.10;99.90;;;;;;5016890;28;20049;-77
2022/03/08 01:52:29;;;;;;;10.45;7.35;;;0.10;99.90;;;;;;5016806;28;20042;-77
2022/03/08 01:54:55;;;;;;;11.10;7.15;;;0.00;99.90;;;;;;5016551;28;20056;-77
2022/03/08 01:57:23;;;;;;;9.75;6.80;;;0.10;99.90;;;;;;5029721;28;20092;-79
2022/03/08 01:59:49;;;;;;;10.30;7.32;;;0.10;99.90;;;;;;5013411;28;20053;-79
2022/03/08 02:02:15;;;;;;;10.45;7.60;;;0.10;99.90;;;;;;5014036;28;20141;-80
2022/03/08 02:04:40;;;;;;;10.73;8.00;;;0.20;99.90;;;;;;4996294;28;20173;-79
2022/03/08 02:07:07;;;;;;;11.68;7.35;;;0.30;99.90;;;;;;5028638;28;20081;-79
2022/03/08 02:09:33;;;;;;;15.05;7.55;;;0.30;99.90;;;;;;5012604;28;20425;-79
2022/03/08 02:11:58;;;;;;;11.73;7.75;;;0.30;99.90;;;;;;5013273;28;20048;-80
2022/03/08 02:14:25;;;;;;;11.00;7.43;;;0.30;99.90;;;;;;5013662;28;20095;-80
2022/03/08 02:16:51;;;;;;;14.45;8.02;;;0.40;99.90;;;;;;5027942;28;20486;-80
2022/03/08 02:19:17;;;;;;;14.75;8.20;;;0.40;99.90;;;;;;5029219;28;20050;-80
2022/03/08 02:21:42;;;;;;;12.27;8.07;;;0.30;99.90;;;;;;5028902;28;20041;-80
2022/03/08 02:24:08;;;;;;;11.95;8.35;;;0.30;99.90;;;;;;5029699;28;20493;-80
2022/03/08 02:26:33;;;;;;;10.73;7.90;;;0.30;99.90;;;;;;5034381;28;20102;-80
2022/03/08 02:29:00;;;;;;;10.10;7.80;;;0.30;99.90;;;;;;5028049;28;20047;-80
2022/03/08 02:31:25;;;;;;;11.15;7.10;;;0.40;99.90;;;;;;5015377;28;20048;-79
2022/03/08 02:33:51;;;;;;;10.93;7.75;;;0.40;99.90;;;;;;5014790;28;20049;-80
2022/03/08 02:36:17;;;;;;;10.43;7.82;;;0.40;99.90;;;;;;5032932;28;20049;-80
2022/03/08 02:38:42;;;;;;;12.25;7.72;;;0.40;99.90;;;;;;5032864;28;20056;-79
2022/03/08 02:41:08;;;;;;;9.57;7.32;;;0.40;99.90;;;;;;5039092;28;20492;-79
2022/03/08 02:43:34;;;;;;;14.30;8.27;;;0.30;99.90;;;;;;5034964;28;20037;-80
2022/03/08 02:45:59;;;;;;;10.65;8.10;;;0.30;99.90;;;;;;5051160;28;20051;-80
2022/03/08 02:48:26;;;;;;;12.15;8.23;;;0.30;99.90;;;;;;5052744;28;20045;-79
2022/03/08 02:50:51;;;;;;;16.77;8.15;;;0.30;99.90;;;;;;5052265;28;20048;-80
2022/03/08 02:53:17;;;;;;;10.52;8.10;;;0.30;99.90;;;;;;5039743;28;20045;-80
2022/03/08 02:55:43;;;;;;;13.15;9.48;;;0.30;99.90;;;;;;5032662;28;20053;-79
2022/03/08 02:58:08;;;;;;;17.60;8.65;;;0.30;99.90;;;;;;4998322;28;20048;-80
2022/03/08 03:00:34;;;;;;;12.25;9.07;;;0.20;99.90;;;;;;5015306;28;20045;-79
2022/03/08 03:03:00;;;;;;;14.43;8.27;;;0.20;99.90;;;;;;4998344;28;20132;-79
2022/03/08 03:05:26;;;;;;;11.98;8.60;;;0.20;99.90;;;;;;4998913;28;20053;-80
2022/03/08 03:07:52;;;;;;;14.68;8.70;;;0.20;99.90;;;;;;5032241;28;20057;-79
2022/03/08 03:10:18;;;;;;;10.68;8.27;;;0.20;99.90;;;;;;5015039;28;20052;-80
2022/03/08 03:12:44;;;;;;;12.10;8.90;;;0.20;99.90;;;;;;5032495;28;20401;-79
2022/03/08 03:15:11;;;;;;;11.00;8.52;;;0.20;99.90;;;;;;5014543;28;20045;-78
2022/03/08 03:17:36;;;;;;;12.38;8.60;;;0.20;99.90;;;;;;5000528;28;20058;-76
2022/03/08 03:20:04;;;;;;;15.07;8.95;;;0.10;99.90;;;;;;5034942;28;20103;-76
2022/03/08 03:22:29;;;;;;;13.15;8.65;;;0.20;99.90;;;;;;5017627;28;20038;-77
2022/03/08 03:24:55;;;;;;;12.40;9.18;;;0.20;99.90;;;;;;5031888;28;20512;-79
2022/03/08 03:27:21;;;;;;;12.18;8.80;;;0.20;99.90;;;;;;5032623;28;20055;-78
2022/03/08 03:29:47;;;;;;;11.27;8.57;;;0.20;99.90;;;;;;5032272;28;20045;-79
2022/03/08 03:32:13;;;;;;;13.80;9.27;;;0.10;99.90;;;;;;5031601;28;20492;-79
2022/03/08 03:34:38;;;;;;;12.43;8.63;;;0.10;99.90;;;;;;5032290;28;20041;-79
2022/03/08 03:37:04;;;;;;;12.25;8.75;;;0.20;99.90;;;;;;5033307;28;20393;-79
2022/03/08 03:39:30;;;;;;;12.30;9.10;;;0.10;99.90;;;;;;5002177;28;20536;-79
2022/03/08 03:41:55;;;;;;;11.15;8.90;;;0.10;99.90;;;;;;5035991;28;20041;-79
2022/03/08 03:44:21;;;;;;;11.77;8.82;;;0.10;99.90;;;;;;5018417;28;20474;-80
2022/03/08 03:46:46;;;;;;;17.63;10.00;;;0.10;99.90;;;;;;5036083;28;20083;-79
2022/03/08 03:49:12;;;;;;;14.75;10.13;;;0.10;99.90;;;;;;5035689;28;20099;-80
2022/03/08 03:51:38;;;;;;;13.20;9.40;;;0.00;99.90;;;;;;5018246;28;20052;-79
2022/03/08 03:54:03;;;;;;;16.50;9.73;;;0.00;99.90;;;;;;5035574;28;20045;-80
2022/03/08 03:56:29;;;;;;;11.63;8.77;;;0.00;99.90;;;;;;5036067;28;20053;-79
2022/03/08 03:58:54;;;;;;;15.32;9.82;;;0.00;99.90;;;;;;5035911;28;20095;-80
2022/03/08 04:01:20;;;;;;;14.60;9.35;;;0.00;99.90;;;;;;5035452;28;20053;-79
2022/03/08 04:03:46;;;;;;;14.55;10.13;;;0.00;99.90;;;;;;5018118;28;20050;-79
2022/03/08 04:06:12;;;;;;;16.17;11.35;;;0.10;99.90;;;;;;5035316;28;20050;-79
2022/03/08 04:08:37;;;;;;;15.02;10.23;;;0.00;99.90;;;;;;5035678;28;20037;-79
2022/03/08 04:11:03;;;;;;;15.50;10.63;;;0.10;99.90;;;;;;5035195;28;20136;-79
2022/03/08 04:13:29;;;;;;;15.73;10.77;;;0.00;99.90;;;;;;5035674;28;20041;-79
2022/03/08 04:15:54;;;;;;;14.70;10.70;;;0.00;99.90;;;;;;5017891;28;20090;-79
2022/03/08 04:18:20;;;;;;;15.40;10.02;;;0.10;99.90;;;;;;5034739;28;20172;-79
2022/03/08 04:20:46;;;;;;;14.80;10.52;;;0.10;99.90;;;;;;5017815;28;20082;-79
2022/03/08 04:23:11;;;;;;;14.40;10.85;;;0.00;99.90;;;;;;5017339;28;20045;-79
2022/03/08 04:25:37;;;;;;;14.55;11.00;;;0.10;99.90;;;;;;5035089;28;20049;-79
2022/03/08 04:28:04;;;;;;;15.20;10.23;;;0.10;99.90;;;;;;5001101;28;20060;-79
2022/03/08 04:30:29;;;;;;;15.00;10.68;;;0.00;99.90;;;;;;5017870;28;20154;-78
2022/03/08 04:32:55;;;;;;;14.60;10.73;;;0.00;99.90;;;;;;5017779;28;20124;-79
2022/03/08 04:35:21;;;;;;;15.27;10.82;;;0.00;99.90;;;;;;5034853;28;20056;-79
2022/03/08 04:37:46;;;;;;;16.50;10.85;;;-0.10;99.90;;;;;;5001201;28;20056;-79
2022/03/08 04:40:12;;;;;;;15.20;10.98;;;-0.10;99.90;;;;;;5000978;28;20084;-79
2022/03/08 04:42:38;;;;;;;18.90;11.20;;;-0.10;99.90;;;;;;5037262;28;20073;-76
2022/03/08 04:45:05;;;;;;;19.50;11.05;;;-0.10;99.90;;;;;;5019684;28;20440;-77
2022/03/08 04:47:30;;;;;;;16.63;11.10;;;-0.10;99.90;;;;;;5036247;28;20064;-78
2022/03/08 04:49:56;;;;;;;17.50;12.00;;;-0.20;99.90;;;;;;5034126;28;20049;-78
2022/03/08 04:52:21;;;;;;;14.68;11.07;;;-0.20;99.90;;;;;;5032258;28;20438;-80
2022/03/08 04:54:47;;;;;;;15.77;11.35;;;-0.20;99.90;;;;;;5040488;28;20439;-78
2022/03/08 04:57:13;;;;;;;14.65;11.38;;;-0.20;99.90;;;;;;5054358;28;20396;-79
2022/03/08 04:59:38;;;;;;;18.52;12.38;;;-0.20;99.90;;;;;;5042011;28;20542;-79
2022/03/08 05:02:04;;;;;;;17.77;11.57;;;-0.20;99.90;;;;;;5034709;28;20200;-78
2022/03/08 05:04:30;;;;;;;18.25;11.68;;;-0.20;99.90;;;;;;5016737;28;20114;-78
2022/03/08 05:06:55;;;;;;;16.90;11.38;;;-0.20;99.90;;;;;;5017204;28;20041;-78
2022/03/08 05:09:21;;;;;;;16.80;11.40;;;-0.20;99.90;;;;;;5034215;28;20394;-79
2022/03/08 05:11:46;;;;;;;18.80;11.48;;;-0.30;99.90;;;;;;5046430;28;20125;-79
2022/03/08 05:14:12;;;;;;;15.98;11.30;;;-0.30;99.90;;;;;;5053936;28;20182;-79
2022/03/08 05:16:37;;;;;;;15.65;11.75;;;-0.30;99.90;;;;;;5054035;28;20080;-79
2022/03/08 05:19:03;;;;;;;16.48;11.27;;;-0.30;99.90;;;;;;5054037;28;20538;-79
2022/03/08 05:21:29;;;;;;;17.85;11.60;;;-0.30;99.90;;;;;;5053834;28;20053;-79
2022/03/08 05:23:54;;;;;;;16.23;11.13;;;-0.30;99.90;;;;;;5036224;28;20046;-79
2022/03/08 05:26:20;;;;;;;17.45;12.45;;;-0.30;99.90;;;;;;5016473;28;20144;-80
2022/03/08 05:28:46;;;;;;;18.33;12.15;;;-0.40;99.90;;;;;;5034342;28;20445;-79
2022/03/08 05:31:13;;;;;;;17.10;12.02;;;-0.40;99.90;;;;;;5016318;28;20056;-78
2022/03/08 05:33:39;;;;;;;17.30;12.27;;;-0.40;99.90;;;;;;5000180;28;20410;-79
2022/03/08 05:36:04;;;;;;;16.92;11.68;;;-0.30;99.90;;;;;;5016475;28;20049;-78
2022/03/08 05:38:30;;;;;;;17.83;12.40;;;-0.30;99.90;;;;;;5033626;28;20501;-80
2022/03/08 05:40:56;;;;;;;18.08;12.80;;;-0.30;99.90;;;;;;5035603;28;20136;-79
2022/03/08 05:43:22;;;;;;;16.45;12.02;;;-0.30;99.90;;;;;;5016317;28;20067;-78
2022/03/08 05:45:47;;;;;;;15.40;10.90;;;-0.40;99.90;;;;;;5016656;28;20051;-77
2022/03/08 05:48:13;;;;;;;18.08;11.63;;;-0.40;99.90;;;;;;5015599;28;20132;-78
2022/03/08 05:50:39;;;;;;;15.77;11.88;;;-0.40;99.90;;;;;;4999665;28;20041;-78
2022/03/08 05:53:04;;;;;;;15.95;11.73;;;-0.40;99.90;;;;;;5016424;28;20091;-79
2022/03/08 05:55:30;;;;;;;17.58;11.48;;;-0.40;99.90;;;;;;5015787;28;20417;-78
2022/03/08 05:57:56;;;;;;;15.43;11.07;;;-0.40;99.90;;;;;;5000196;28;20057;-79
2022/03/08 06:00:21;;;;;;;15.70;11.23;;;-0.40;99.90;;;;;;5033074;28;20046;-80
2022/03/08 06:02:47;;;;;;;16.00;11.00;;;-0.40;99.90;;;;;;5034688;28;20094;-79
2022/03/08 06:05:13;;;;;;;14.77;11.52;;;-0.30;99.90;;;;;;5015973;28;20045;-78
2022/03/08 06:07:38;;;;;;;16.27;11.63;;;-0.30;99.90;;;;;;5033441;28;20393;-79
2022/03/08 06:10:06;;;;;;;17.90;12.40;;;-0.30;99.90;;;;;;5040003;28;20449;-78
2022/03/08 06:12:32;;;;;;;17.90;12.50;;;-0.40;99.90;;;;;;5034340;28;20092;-78
2022/03/08 06:14:57;;;;;;;17.30;12.27;;;-0.30;99.90;;;;;;5034693;28;20455;-77
2022/03/08 06:17:24;;;;;;;16.80;11.52;;;-0.30;99.90;;;;;;5033554;28;20490;-78
2022/03/08 06:19:49;;;;;;;15.52;11.88;;;-0.30;99.90;;;;;;5033368;28;20132;-79
2022/03/08 06:22:15;;;;;;;19.42;12.02;;;-0.20;99.90;;;;;;5033271;28;20437;-79
2022/03/08 06:24:40;;;;;;;17.50;10.95;;;-0.20;99.90;;;;;;5032795;28;20045;-79
2022/03/08 06:27:06;;;;;;;17.05;11.68;;;-0.20;99.90;;;;;;5033676;28;20420;-79
2022/03/08 06:29:32;;;;;;;16.40;11.23;;;-0.20;99.90;;;;;;4998983;28;20497;-80
2022/03/08 06:31:57;;;;;;;15.25;11.25;;;-0.20;99.90;;;;;;5013817;28;20068;-79
2022/03/08 06:34:23;;;;;;;17.77;11.55;;;-0.10;99.90;;;;;;4998944;28;20045;-80
2022/03/08 06:36:49;;;;;;;14.00;10.90;;;-0.10;99.90;;;;;;5015457;28;20046;-79
2022/03/08 06:39:14;;;;;;;15.93;11.25;;;-0.10;99.90;;;;;;5032924;28;20056;-80
2022/03/08 06:41:40;;;;;;;16.40;11.82;;;-0.10;99.90;;;;;;5032893;28;20053;-79
2022/03/08 06:44:05;;;;;;;18.70;12.27;;;-0.10;99.90;;;;;;5015401;28;20049;-80
2022/03/08 06:46:31;;;;;;;15.18;11.40;;;0.00;99.90;;;;;;5032663;28;20045;-80
2022/03/08 06:48:57;;;;;;;17.52;11.82;;;0.10;99.90;;;;;;5032949;28;20467;-78
2022/03/08 06:51:22;;;;;;;15.77;11.40;;;0.10;99.90;;;;;;5032810;28;20048;-81
2022/03/08 06:53:48;;;;;;;18.08;11.38;;;0.20;99.90;;;;;;5032821;28;20041;-79
2022/03/08 06:56:14;;;;;;;15.73;11.60;;;0.30;99.90;;;;;;5015242;28;20056;-79
2022/03/08 06:58:39;;;;;;;15.57;11.60;;;0.40;99.90;;;;;;5032377;28;20137;-80
2022/03/08 07:01:05;;;;;;;18.98;12.07;;;0.40;99.90;;;;;;5015303;28;20524;-80
2022/03/08 07:03:31;;;;;;;17.92;12.02;;;0.50;99.90;;;;;;5014673;28;20048;-79
2022/03/08 07:05:56;;;;;;;15.68;11.88;;;0.50;99.90;;;;;;5015027;28;20041;-80
2022/03/08 07:08:22;;;;;;;15.38;10.50;;;0.50;99.90;;;;;;5015111;28;20071;-79
2022/03/08 07:10:50;;;;;;;13.98;11.13;;;0.60;99.90;;;;;;5014795;28;20054;-78
2022/03/08 07:13:15;;;;;;;15.60;11.13;;;0.60;99.90;;;;;;5036056;28;20084;-79
2022/03/08 07:15:41;;;;;;;16.90;11.63;;;0.60;99.90;;;;;;5036327;28;20088;-78
2022/03/08 07:18:07;;;;;;;14.52;11.18;;;0.70;99.90;;;;;;5036550;28;20128;-79
2022/03/08 07:20:32;;;;;;;15.27;11.65;;;0.70;99.90;;;;;;5018771;28;20057;-79
2022/03/08 07:22:58;;;;;;;15.05;11.45;;;0.80;99.90;;;;;;5036647;28;20132;-80
2022/03/08 07:25:23;;;;;;;16.65;11.32;;;0.80;99.90;;;;;;5018811;28;20051;-80
2022/03/08 07:27:49;;;;;;;16.08;11.40;;;0.80;99.90;;;;;;5036203;28;20049;-80
2022/03/08 07:30:15;;;;;;;16.42;11.50;;;0.90;99.90;;;;;;5019048;28;20115;-80
2022/03/08 07:32:40;;;;;;;17.27;10.90;;;0.90;99.90;;;;;;5036081;28;20037;-79
2022/03/08 07:35:06;;;;;;;14.25;11.10;;;1.00;99.90;;;;;;5018620;28;20049;-80
2022/03/08 07:37:36;;;;;;;18.42;11.20;;;1.10;99.90;;;;;;5035885;28;20057;-80
2022/03/08 07:40:03;;;;;;;15.93;10.65;;;1.20;99.90;;;;;;5036339;28;20053;-80
2022/03/08 07:42:30;;;;;;;16.88;10.85;;;1.30;99.90;;;;;;5018240;28;20050;-81
2022/03/08 07:44:55;;;;;;;18.30;10.85;;;1.40;99.90;;;;;;5018760;28;20049;-79
2022/03/08 07:47:21;;;;;;;13.38;10.48;;;1.60;99.90;;;;;;5036263;28;20452;-80
2022/03/08 07:49:46;;;;;;;13.30;10.85;;;1.60;99.90;;;;;;5035688;28;20065;-79
2022/03/08 07:52:13;;;;;;;14.00;10.38;;;1.70;99.90;;;;;;5036314;28;20044;-77
2022/03/08 07:54:38;;;;;;;12.15;10.13;;;1.80;99.90;;;;;;5025012;28;20045;-76
2022/03/08 07:57:04;;;;;;;12.93;10.45;;;1.90;99.90;;;;;;5045426;28;20103;-75
2022/03/08 07:59:30;;;;;;;16.00;11.20;;;1.90;99.90;;;;;;5021456;28;20045;-76
2022/03/08 08:01:56;;;;;;;13.27;10.88;;;2.00;99.90;;;;;;5037985;28;20458;-79
2022/03/08 08:04:23;;;;;;;11.63;9.73;;;2.20;99.90;;;;;;5035919;28;20075;-79
2022/03/08 08:06:48;;;;;;;13.10;10.25;;;2.20;99.90;;;;;;5017776;28;20110;-79
2022/03/08 08:09:14;;;;;;;10.90;9.45;;;2.30;99.90;;;;;;5035778;28;20136;-79
2022/03/08 08:11:40;;;;;;;12.13;9.98;;;2.50;99.90;;;;;;5017769;28;20429;-78
2022/03/08 08:14:06;;;;;;;15.07;10.48;;;2.70;99.90;;;;;;5018145;28;20045;-79
2022/03/08 08:16:31;;;;;;;13.77;10.27;;;2.60;99.90;;;;;;5035630;28;20044;-78
2022/03/08 08:19:00;;;;;;;11.73;9.63;;;2.70;99.90;;;;;;5035493;28;20061;-79
2022/03/08 08:21:26;;;;;;;12.95;9.50;;;2.80;99.90;;;;;;5035573;28;20061;-79
2022/03/08 08:23:51;;;;;;;11.88;9.65;;;2.90;99.90;;;;;;5035208;28;20038;-79
2022/03/08 08:26:17;;;;;;;12.73;9.77;;;2.90;99.90;;;;;;5035554;28;20480;-78
2022/03/08 08:28:43;;;;;;;11.68;9.75;;;2.90;99.90;;;;;;5035038;28;20056;-80
2022/03/08 08:31:08;;;;;;;10.60;9.50;;;3.10;99.90;;;;;;5033966;28;20045;-78
2022/03/08 08:33:34;;;;;;;14.10;10.15;;;3.10;99.90;;;;;;5045087;28;20037;-79
2022/03/08 08:36:00;;;;;;;11.93;9.63;;;3.10;99.90;;;;;;5037401;28;20049;-79
2022/03/08 08:38:25;;;;;;;12.23;9.70;;;3.20;99.90;;;;;;5038724;28;20095;-79
2022/03/08 08:40:51;;;;;;;11.07;9.88;;;3.20;99.90;;;;;;5017122;28;20497;-80
2022/03/08 08:43:17;;;;;;;11.68;9.60;;;3.30;99.90;;;;;;5017850;28;20045;-79
2022/03/08 08:45:42;;;;;;;13.63;10.15;;;3.40;99.90;;;;;;5016939;28;20041;-80
2022/03/08 08:48:08;;;;;;;12.00;9.80;;;3.50;99.90;;;;;;5035113;28;20124;-79
2022/03/08 08:50:35;;;;;;;13.93;10.10;;;3.50;99.90;;;;;;5033417;28;20049;-79
2022/03/08 08:53:00;;;;;;;11.70;10.25;;;3.50;99.90;;;;;;5036702;28;20056;-79
2022/03/08 08:55:26;;;;;;;12.77;10.10;;;3.60;99.90;;;;;;5037312;28;20044;-79
2022/03/08 08:57:52;;;;;;;11.55;9.75;;;3.60;99.90;;;;;;5054706;28;20044;-79
2022/03/08 09:00:18;;;;;;;10.98;9.50;;;3.70;99.90;;;;;;5054726;28;20045;-79
2022/03/08 09:02:43;;;;;;;10.35;9.32;;;3.80;99.90;;;;;;5016796;28;20037;-80
2022/03/08 09:05:10;;;;;;;10.95;9.73;;;3.90;99.90;;;;;;5001145;28;20370;-80
2022/03/08 09:07:36;;;;;;;11.85;9.57;;;3.90;99.90;;;;;;5000959;28;20094;-79
2022/03/08 09:10:03;;;;;;;11.98;9.57;;;4.00;99.90;;;;;;5034298;28;20116;-80
2022/03/08 09:12:29;;;;;;;11.93;9.45;;;4.10;99.80;;;;;;5034547;28;20041;-80
2022/03/08 09:14:54;;;;;;;12.05;9.48;;;4.20;99.70;;;;;;5034215;28;20049;-80
2022/03/08 09:17:21;;;;;;;12.15;9.90;;;4.30;99.10;;;;;;5034341;28;20085;-79
2022/03/08 09:19:47;;;;;;;10.93;9.15;;;4.30;98.70;;;;;;5032957;28;20046;-80
2022/03/08 09:22:13;;;;;;;10.88;9.07;;;4.40;99.00;;;;;;5034430;28;20037;-80
2022/03/08 09:24:39;;;;;;;11.75;8.52;;;4.40;98.80;;;;;;5016803;28;20128;-80
2022/03/08 09:27:05;;;;;;;12.40;9.00;;;4.40;98.60;;;;;;5016490;28;20045;-80
2022/03/08 09:29:30;;;;;;;9.65;8.60;;;4.50;98.10;;;;;;5034360;28;20538;-79
2022/03/08 09:31:56;;;;;;;11.27;8.57;;;4.70;97.00;;;;;;5033709;28;20092;-80
2022/03/08 09:34:22;;;;;;;9.98;8.30;;;4.70;97.20;;;;;;5033595;28;20057;-80
2022/03/08 09:36:48;;;;;;;11.60;8.50;;;4.80;97.10;;;;;;5016341;28;20478;-80
2022/03/08 09:39:13;;;;;;;12.00;7.82;;;4.90;96.80;;;;;;5033075;28;20154;-79
2022/03/08 09:41:40;;;;;;;9.10;7.82;;;5.00;96.40;;;;;;5034098;28;20037;-79
2022/03/08 09:44:07;;;;;;;8.50;7.05;;;5.10;96.00;;;;;;4999892;28;20100;-79
2022/03/08 09:46:33;;;;;;;8.93;6.82;;;5.20;94.80;;;;;;5005335;28;20049;-77
2022/03/08 09:48:58;;;;;;;8.02;6.85;;;5.30;94.20;;;;;;5039220;28;20400;-76
2022/03/08 09:51:24;;;;;;;9.27;6.38;;;5.40;93.10;;;;;;5035730;28;20132;-79
2022/03/08 09:53:53;;;;;;;8.30;6.68;;;5.50;92.00;;;;;;5015357;28;20128;-80
2022/03/08 09:56:19;;;;;;;6.60;5.88;;;5.60;90.20;;;;;;5033837;28;20406;-79
2022/03/08 09:58:44;;;;;;;9.77;5.53;;;5.70;90.40;;;;;;5033745;28;20049;-79
2022/03/08 10:01:10;;;;;;;5.82;5.15;;;5.80;87.60;;;;;;5033405;28;20041;-80
2022/03/08 10:03:40;;;;;;;6.35;5.22;;;5.90;86.40;;;;;;5033584;28;20050;-79
2022/03/08 10:06:07;;;;;;;6.55;5.47;;;6.00;83.00;;;;;;5033120;28;20049;-79
2022/03/08 10:08:32;;;;;;;8.68;5.95;;;6.10;81.70;;;;;;5016138;28;20060;-79
2022/03/08 10:10:59;;;;;;;6.05;5.28;;;6.10;83.60;;;;;;5015578;28;20429;-80
2022/03/08 10:13:31;;;;;;;8.48;5.40;;;6.20;84.40;;;;;;5015708;28;20056;-79
2022/03/08 10:16:41;;;;;;;8.38;5.70;;;6.10;84.00;;;;;;5015531;28;20128;-81
2022/03/08 10:19:08;;;;;;;7.57;5.85;;;6.20;79.20;;;;;;5013289;28;20508;-80
2022/03/08 10:21:35;;;;;;;6.50;5.78;;;6.20;80.50;;;;;;5032074;28;20500;-79
2022/03/08 10:24:05;;;;;;;7.75;5.45;;;6.40;78.90;;;;;;4998896;28;20046;-80
2022/03/08 10:26:32;;;;;;;6.55;5.88;;;6.40;78.60;;;;;;5033278;28;20049;-80
2022/03/08 10:28:58;;;;;;;9.45;6.18;;;6.50;78.60;;;;;;5015291;28;20049;-80
2022/03/08 10:31:23;;;;;;;7.53;5.30;;;6.50;79.20;;;;;;5015578;28;20068;-81
2022/03/08 10:33:49;;;;;;;8.77;5.72;;;6.60;76.20;;;;;;4999170;28;20053;-80
2022/03/08 10:36:22;;;;;;;6.30;5.68;;;6.60;75.40;;;;;;4982760;28;20045;-80
2022/03/08 10:39:12;;;;;;;7.93;6.20;;;6.70;74.80;;;;;;5015651;28;20048;-80
2022/03/08 10:41:52;;;;;;;9.35;5.95;;;6.70;73.60;;;;;;5032940;28;20060;-81
2022/03/08 10:44:31;;;;;;;6.68;5.70;;;6.70;74.80;;;;;;5033036;28;20056;-78
2022/03/08 10:47:01;;;;;;;6.57;5.85;;;6.80;72.30;;;;;;5014397;28;20132;-79
2022/03/08 10:49:26;;;;;;;6.47;5.70;;;6.80;72.90;;;;;;4999177;28;20115;-80
2022/03/08 10:52:03;;;;;;;7.65;5.78;;;6.80;75.60;;;;;;5032741;28;20049;-80
2022/03/08 10:54:29;;;;;;;7.75;6.13;;;6.90;72.60;;;;;;5032156;28;20516;-80
2022/03/08 10:56:55;;;;;;;8.48;6.20;;;6.90;72.50;;;;;;5014577;28;20045;-81
2022/03/08 10:59:20;;;;;;;6.65;5.88;;;7.00;73.00;;;;;;5031386;28;20045;-80
2022/03/08 11:01:46;;;;;;;7.75;5.70;;;7.10;72.40;;;;;;5004244;28;20065;-80
2022/03/08 11:04:20;;;;;;;9.57;6.13;;;7.20;71.00;;;;;;5048340;28;20477;-80
2022/03/08 11:06:47;;;;;;;7.00;6.28;;;7.20;68.40;;;;;;5014119;28;20053;-80
2022/03/08 11:09:13;;;;;;;8.05;5.70;;;7.30;71.20;;;;;;5032387;28;20107;-80
2022/03/08 11:11:39;;;;;;;7.57;5.80;;;7.40;71.70;;;;;;5015229;28;20041;-80
2022/03/08 11:14:04;;;;;;;7.05;6.35;;;7.40;71.20;;;;;;5032003;28;20048;-80
2022/03/08 11:16:31;;;;;;;6.60;5.95;;;7.50;69.40;;;;;;5032463;28;20046;-79
2022/03/08 11:18:56;;;;;;;6.95;6.25;;;7.60;70.90;;;;;;5036496;28;20103;-80
2022/03/08 11:21:23;;;;;;;7.45;5.80;;;7.60;70.90;;;;;;5051922;28;20045;-79
2022/03/08 11:23:49;;;;;;;6.43;5.72;;;7.70;69.20;;;;;;5034735;28;20080;-80
2022/03/08 11:26:15;;;;;;;6.78;6.07;;;7.80;68.50;;;;;;5034608;28;20057;-77
2022/03/08 11:28:45;;;;;;;7.07;5.95;;;7.90;68.00;;;;;;5053878;28;20561;-77
2022/03/08 11:31:11;;;;;;;6.20;5.60;;;7.90;67.30;;;;;;5010747;28;20045;-78
2022/03/08 11:33:59;;;;;;;7.03;6.20;;;8.10;64.30;;;;;;5015583;28;20049;-78
2022/03/08 11:36:56;;;;;;;21.63;15.05;;;8.10;65.50;;;;;;5000846;28;20132;-80
2022/03/08 11:39:25;;;;;;;7.25;5.57;;;8.40;67.70;;;;;;5002332;28;20140;-80
2022/03/08 11:41:58;;;;;;;6.30;5.22;;;8.40;67.10;;;;;;5032399;28;20056;-80
2022/03/08 11:44:26;;;;;;;6.47;4.70;;;8.60;63.60;;;;;;5014273;28;20125;-80
2022/03/08 11:47:07;;;;;;;6.45;5.13;;;8.50;66.30;;;;;;5032200;28;20049;-79
2022/03/08 11:49:40;;;;;;;6.13;4.65;;;8.50;64.90;;;;;;5032323;28;20099;-79
2022/03/08 11:52:19;;;;;;;6.13;4.93;;;8.60;64.80;;;;;;5014456;28;20045;-81
2022/03/08 11:55:06;;;;;;;5.55;4.97;;;8.60;63.60;;;;;;5014676;28;20049;-82
2022/03/08 11:57:50;;;;;;;5.43;4.82;;;8.60;61.60;;;;;;5032684;28;20045;-81
2022/03/08 12:00:23;;;;;;;5.53;4.72;;;8.70;59.90;;;;;;5035600;28;20042;-80
2022/03/08 12:02:51;;;;;;;5.40;4.43;;;8.70;62.60;;;;;;5036000;28;20071;-81
2022/03/08 12:05:57;;;;;;;5.18;4.40;;;8.80;61.50;;;;;;5017913;28;20049;-81
2022/03/08 12:08:28;;;;;;;6.03;4.43;;;8.80;58.60;;;;;;4993478;28;20164;-81
2022/03/08 12:11:04;;;;;;;4.72;4.30;;;8.80;59.40;;;;;;5030077;28;20057;-81
2022/03/08 12:13:36;;;;;;;6.28;4.57;;;8.80;59.90;;;;;;5035535;28;20087;-81
2022/03/08 12:16:08;;;;;;;6.07;4.97;;;8.90;59.70;;;;;;5035803;28;20103;-82
2022/03/08 12:18:49;;;;;;;5.97;4.60;;;9.00;59.70;;;;;;5035703;28;20061;-80
2022/03/08 12:21:14;;;;;;;5.43;4.55;;;9.00;59.30;;;;;;5035164;28;20049;-80
2022/03/08 12:23:53;;;;;;;6.72;4.55;;;9.00;58.70;;;;;;5018159;28;20421;-80
2022/03/08 12:26:28;;;;;;;4.88;4.30;;;9.10;56.90;;;;;;5035076;28;20087;-80
2022/03/08 12:29:03;;;;;;;5.30;4.38;;;9.20;57.50;;;;;;5017841;28;20077;-81
2022/03/08 12:31:28;;;;;;;5.20;4.70;;;9.30;58.10;;;;;;5035169;28;20056;-81
2022/03/08 12:34:46;;;;;;;4.75;4.35;;;9.30;58.40;;;;;;5017683;28;20474;-81
2022/03/08 12:37:23;;;;;;;4.60;4.15;;;9.30;57.40;;;;;;5026370;28;20449;-80
2022/03/08 12:39:54;;;;;;;5.85;4.60;;;9.40;58.30;;;;;;5017747;28;20053;-81
2022/03/08 12:42:32;;;;;;;4.80;4.32;;;9.40;59.20;;;;;;5034814;28;20053;-79
2022/03/08 12:45:20;;;;;;;4.85;4.20;;;9.50;57.80;;;;;;5035101;28;20045;-79
2022/03/08 12:47:47;;;;;;;4.95;4.32;;;9.60;57.60;;;;;;5017703;28;20111;-79
2022/03/08 12:50:15;;;;;;;6.65;4.95;;;9.60;56.80;;;;;;5034624;28;20092;-79
2022/03/08 12:52:51;;;;;;;5.57;5.07;;;9.60;56.90;;;;;;5001186;28;20111;-79